Main page
METAR-TAF:

METAR-TAF

Airports :

Leuchars, Scotland

Leuchars Station

latitude: 56-23N, longitude: 002-52W, elevation: 12 m

Current weather observation

The report was made 53 minutes ago, at 07:50 UTC
Wind 14 kt from the West
Temperature 11°C
Humidity 87%
Pressure 1015 hPa
Visibility 10 km or more
Few clouds at a height of 3500 ft
Broken clouds at a height of 13000 ft

METAR: EGQL 230750Z 26014KT 9999 FEW035 BKN130 11/09 Q1015 BLU

Time: 09:43 (08:43 UTC)

Forecast

The report was made 1 hour and 3 minutes ago, at 07:40 UTC
Forecast valid from 23 at 09 UTC to 23 at 18 UTC
Wind 12 kt from the West
Visibility 10 km or more
Few clouds at a height of 4500 ft

TAF: EGQL 230740Z 2309/2318 26012KT 9999 FEW045

Weather observations and forecasts of more than 4000 airports (METAR and TAF reports).

The available stations are represented by yellow and red dots on the map.

Hover mouse over dot to see the name of the station.

Then click to see weather observations and forecasts.

To change the map : click on the green buttons with a black cross to zoom in, on the green button with a dash to zoom out, or on the green arrows for adjacent maps.


METAR-TAF: